Time;durP1;ratioP1;P1;durP2;ratioP2;P2;SDS_P1;SDS_P2;PMS_P1;PMS_P2;Temp;Humidity;BMP_temperature;BMP_pressure;BME280_temperature;BME280_humidity;BME280_pressure;Samples;Min_cycle;Max_cycle;Signal;HPM_P1;HPM_P2
2023/08/24 00:01:09;;;;;;;6.57;5.97;;;23.30;99.90;;;;;;5032593;28;20409;-69
2023/08/24 00:03:35;;;;;;;6.80;6.07;;;23.00;99.90;;;;;;5032827;28;20744;-70
2023/08/24 00:06:00;;;;;;;13.33;7.10;;;23.00;99.90;;;;;;5032799;28;20422;-69
2023/08/24 00:08:26;;;;;;;7.17;6.23;;;23.10;99.90;;;;;;5025846;28;20214;-70
2023/08/24 00:10:52;;;;;;;6.90;6.20;;;23.00;99.90;;;;;;5012961;28;20221;-69
2023/08/24 00:13:18;;;;;;;6.23;5.60;;;23.00;99.90;;;;;;5012834;28;20816;-70
2023/08/24 00:15:45;;;;;;;8.63;6.57;;;23.00;99.90;;;;;;5013120;28;20560;-70
2023/08/24 00:18:10;;;;;;;6.70;6.10;;;23.00;99.90;;;;;;5016932;28;20526;-70
2023/08/24 00:20:37;;;;;;;9.67;7.40;;;23.00;99.90;;;;;;5035262;28;20488;-70
2023/08/24 00:23:02;;;;;;;6.30;5.73;;;23.00;99.90;;;;;;5034764;28;20199;-69
2023/08/24 00:25:29;;;;;;;8.30;6.30;;;23.10;99.90;;;;;;5016760;28;20457;-70
2023/08/24 00:27:54;;;;;;;6.97;6.33;;;23.00;99.90;;;;;;5018492;28;20243;-69
2023/08/24 00:30:20;;;;;;;8.17;6.50;;;23.00;99.90;;;;;;5036599;28;20861;-70
2023/08/24 00:32:46;;;;;;;6.40;5.90;;;23.00;99.90;;;;;;5036474;28;20171;-70
2023/08/24 00:35:12;;;;;;;6.40;5.87;;;23.00;99.90;;;;;;5033252;28;20258;-70
2023/08/24 00:37:38;;;;;;;6.97;6.37;;;22.80;99.90;;;;;;5036622;28;20282;-70
2023/08/24 00:40:09;;;;;;;9.13;6.03;;;22.80;99.90;;;;;;5016565;28;20168;-70
2023/08/24 00:42:43;;;;;;;7.47;6.83;;;22.80;99.90;;;;;;5016580;28;20512;-70
2023/08/24 00:45:09;;;;;;;8.23;6.27;;;22.70;99.90;;;;;;5016431;28;20474;-70
2023/08/24 00:47:38;;;;;;;5.53;5.00;;;22.70;99.90;;;;;;5016429;28;20415;-70
2023/08/24 00:50:04;;;;;;;6.10;5.37;;;22.70;99.90;;;;;;5027781;28;20816;-69
2023/08/24 00:52:32;;;;;;;6.83;6.13;;;22.70;99.90;;;;;;5016320;28;20777;-70
2023/08/24 00:55:01;;;;;;;8.90;6.37;;;22.80;99.90;;;;;;5024468;28;20782;-69
2023/08/24 00:57:28;;;;;;;6.53;6.03;;;22.90;99.90;;;;;;5035831;28;20436;-69
2023/08/24 00:59:55;;;;;;;7.83;5.57;;;22.90;99.90;;;;;;5018345;28;20422;-69
2023/08/24 01:02:21;;;;;;;8.73;6.30;;;22.90;99.90;;;;;;5015988;28;20447;-70
2023/08/24 01:04:47;;;;;;;6.93;6.20;;;22.90;99.90;;;;;;5016244;28;20446;-70
2023/08/24 01:07:14;;;;;;;7.60;7.00;;;22.90;99.90;;;;;;5015971;28;20192;-70
2023/08/24 01:09:40;;;;;;;8.07;6.70;;;22.80;99.90;;;;;;5031433;28;20967;-70
2023/08/24 01:12:08;;;;;;;7.20;6.47;;;22.80;99.90;;;;;;5035510;28;20410;-69
2023/08/24 01:14:47;;;;;;;6.97;6.13;;;22.80;99.90;;;;;;5035981;28;20969;-70
2023/08/24 01:17:16;;;;;;;8.20;6.87;;;22.80;99.90;;;;;;5035967;28;20432;-70
2023/08/24 01:19:43;;;;;;;7.40;6.70;;;22.80;99.90;;;;;;5020155;28;20502;-70
2023/08/24 01:22:45;;;;;;;9.50;6.83;;;22.70;99.90;;;;;;5015964;28;20438;-70
2023/08/24 01:25:12;;;;;;;8.27;6.27;;;22.70;99.90;;;;;;5013078;28;20517;-71
2023/08/24 01:27:40;;;;;;;6.83;6.23;;;22.70;99.90;;;;;;5015745;28;20431;-70
2023/08/24 01:30:06;;;;;;;7.03;6.33;;;22.70;99.90;;;;;;5034627;28;20501;-70
2023/08/24 01:32:33;;;;;;;6.00;5.40;;;22.80;99.90;;;;;;5034896;28;20414;-70
2023/08/24 01:35:02;;;;;;;6.83;6.23;;;22.70;99.90;;;;;;5035469;28;20893;-70
2023/08/24 01:37:28;;;;;;;6.60;6.00;;;22.70;99.90;;;;;;5035521;28;20433;-70
2023/08/24 01:40:14;;;;;;;7.63;6.70;;;22.70;99.90;;;;;;5018226;28;20940;-69
2023/08/24 01:42:54;;;;;;;9.20;6.20;;;22.70;99.90;;;;;;5014279;28;20188;-70
2023/08/24 01:45:24;;;;;;;6.20;5.63;;;22.60;99.90;;;;;;5015617;28;20755;-70
2023/08/24 01:47:51;;;;;;;8.60;6.90;;;22.60;99.90;;;;;;5015308;28;20415;-69
2023/08/24 01:50:17;;;;;;;7.20;6.70;;;22.50;99.90;;;;;;4995743;28;20749;-70
2023/08/24 01:52:43;;;;;;;6.40;5.90;;;22.50;99.90;;;;;;4995786;28;20423;-70
2023/08/24 01:55:10;;;;;;;7.97;7.37;;;22.40;99.90;;;;;;5014370;28;20415;-69
2023/08/24 01:57:35;;;;;;;7.67;6.87;;;22.50;99.90;;;;;;5014967;28;20431;-70
2023/08/24 02:00:02;;;;;;;6.77;6.10;;;22.50;99.90;;;;;;5032881;28;20406;-70
2023/08/24 02:02:27;;;;;;;6.90;6.20;;;22.40;99.90;;;;;;5034975;28;20203;-69
2023/08/24 02:04:53;;;;;;;7.13;6.43;;;22.40;99.90;;;;;;5034720;28;20497;-70
2023/08/24 02:07:18;;;;;;;8.53;6.63;;;22.40;99.90;;;;;;5034894;28;20210;-70
2023/08/24 02:09:44;;;;;;;7.93;7.23;;;22.40;99.90;;;;;;5019172;28;20171;-69
2023/08/24 02:12:09;;;;;;;10.23;7.30;;;22.40;99.90;;;;;;5014562;28;20207;-70
2023/08/24 02:14:35;;;;;;;8.03;7.33;;;22.30;99.90;;;;;;5014859;28;20199;-70
2023/08/24 02:17:00;;;;;;;6.97;6.17;;;22.40;99.90;;;;;;5014701;28;20199;-70
2023/08/24 02:19:26;;;;;;;7.43;6.83;;;22.30;99.90;;;;;;5027647;28;20167;-70
2023/08/24 02:21:51;;;;;;;7.83;7.13;;;22.30;99.90;;;;;;5034427;28;20191;-69
2023/08/24 02:24:17;;;;;;;10.10;8.23;;;22.20;99.90;;;;;;5022578;28;20616;-70
2023/08/24 02:26:49;;;;;;;8.50;7.63;;;22.10;99.90;;;;;;5014130;28;20667;-69
2023/08/24 02:29:14;;;;;;;8.43;7.70;;;22.20;99.90;;;;;;5025639;28;20262;-70
2023/08/24 02:31:40;;;;;;;8.53;7.80;;;22.20;99.90;;;;;;5034254;28;20437;-69
2023/08/24 02:34:06;;;;;;;8.10;7.40;;;22.10;99.90;;;;;;5034164;28;20702;-69
2023/08/24 02:36:33;;;;;;;7.93;7.33;;;22.00;99.90;;;;;;5034106;28;20441;-70
2023/08/24 02:38:59;;;;;;;9.00;8.10;;;21.90;99.90;;;;;;5025744;28;20168;-69
2023/08/24 02:41:25;;;;;;;8.40;7.70;;;21.80;99.90;;;;;;5030053;28;20402;-69
2023/08/24 02:43:50;;;;;;;9.30;8.37;;;21.80;99.90;;;;;;5033360;28;20450;-70
2023/08/24 02:46:17;;;;;;;9.33;8.37;;;21.80;99.90;;;;;;5034429;28;20167;-69
2023/08/24 02:48:43;;;;;;;8.83;7.97;;;21.80;99.90;;;;;;5027685;28;20242;-70
2023/08/24 02:51:08;;;;;;;7.37;6.67;;;21.90;99.90;;;;;;5014174;28;20897;-70
2023/08/24 02:53:34;;;;;;;7.10;6.40;;;21.90;99.90;;;;;;5014180;28;20710;-70
2023/08/24 02:56:00;;;;;;;7.97;7.37;;;22.00;99.90;;;;;;5013994;28;20225;-70
2023/08/24 02:58:26;;;;;;;8.37;7.57;;;22.10;99.90;;;;;;5014040;28;20191;-70
2023/08/24 03:00:52;;;;;;;7.87;7.17;;;22.10;99.90;;;;;;5024803;28;20472;-70
2023/08/24 03:03:17;;;;;;;9.00;8.20;;;22.10;99.90;;;;;;5033684;28;20991;-70
2023/08/24 03:05:57;;;;;;;8.23;7.53;;;22.10;99.90;;;;;;5033683;28;20661;-70
2023/08/24 03:08:23;;;;;;;7.53;6.93;;;22.10;99.90;;;;;;5030425;28;20188;-71
2023/08/24 03:10:49;;;;;;;8.30;7.50;;;22.20;99.90;;;;;;5013700;28;20928;-70
2023/08/24 03:13:15;;;;;;;8.20;7.50;;;22.20;99.90;;;;;;5013786;28;20403;-70
2023/08/24 03:15:40;;;;;;;7.03;6.40;;;22.20;99.90;;;;;;5013603;28;20418;-70
2023/08/24 03:18:06;;;;;;;6.43;5.87;;;22.10;99.90;;;;;;5014520;28;20192;-70
2023/08/24 03:20:32;;;;;;;7.93;7.23;;;22.10;99.90;;;;;;5033437;28;20250;-71
2023/08/24 03:22:57;;;;;;;9.07;8.37;;;22.00;99.90;;;;;;5032926;28;20191;-70
2023/08/24 03:25:23;;;;;;;7.60;7.03;;;22.10;99.90;;;;;;5013612;28;20243;-70
2023/08/24 03:27:50;;;;;;;7.10;6.60;;;22.10;99.90;;;;;;5013572;28;20210;-71
2023/08/24 03:30:16;;;;;;;8.67;7.33;;;22.20;99.90;;;;;;5032176;28;20172;-69
2023/08/24 03:32:41;;;;;;;9.00;8.10;;;22.20;99.90;;;;;;5033076;28;20406;-71
2023/08/24 03:35:07;;;;;;;8.83;8.03;;;22.10;99.90;;;;;;5033444;28;20183;-69
2023/08/24 03:37:33;;;;;;;8.20;7.50;;;22.00;99.90;;;;;;5033000;28;20198;-71
2023/08/24 03:39:59;;;;;;;8.10;7.40;;;22.00;99.90;;;;;;5016805;28;20415;-71
2023/08/24 03:42:24;;;;;;;8.77;7.87;;;22.00;99.90;;;;;;5013228;28;20450;-70
2023/08/24 03:44:50;;;;;;;8.57;7.87;;;21.90;99.90;;;;;;5013517;28;20206;-71
2023/08/24 03:47:15;;;;;;;8.60;7.90;;;21.90;99.90;;;;;;5013090;28;20180;-69
2023/08/24 03:49:44;;;;;;;8.60;7.80;;;21.90;99.90;;;;;;5026578;28;20631;-69
2023/08/24 03:52:10;;;;;;;7.80;7.20;;;21.90;99.90;;;;;;5032858;28;20272;-69
2023/08/24 03:54:35;;;;;;;8.20;7.50;;;21.90;99.90;;;;;;5018661;28;20478;-69
2023/08/24 03:57:02;;;;;;;8.40;7.70;;;21.80;99.90;;;;;;5013014;28;20574;-70
2023/08/24 03:59:27;;;;;;;8.50;7.70;;;21.80;99.90;;;;;;5024599;28;20175;-69
2023/08/24 04:01:53;;;;;;;8.27;7.53;;;21.90;99.90;;;;;;5033192;28;20442;-69
2023/08/24 04:04:19;;;;;;;8.60;7.70;;;22.10;99.90;;;;;;5032998;28;20163;-69
2023/08/24 04:06:44;;;;;;;8.10;7.50;;;22.20;99.90;;;;;;5032565;28;20174;-70
2023/08/24 04:09:10;;;;;;;7.17;6.67;;;22.30;99.90;;;;;;5023626;28;20247;-70
2023/08/24 04:11:36;;;;;;;7.20;6.60;;;22.40;99.90;;;;;;5012958;28;20599;-70
2023/08/24 04:14:01;;;;;;;8.97;8.17;;;22.30;99.90;;;;;;5012972;28;20535;-70
2023/08/24 04:16:27;;;;;;;7.30;6.60;;;22.40;99.90;;;;;;5012811;28;20195;-70
2023/08/24 04:18:52;;;;;;;6.93;6.33;;;22.40;99.90;;;;;;5019245;28;20246;-70
2023/08/24 04:21:18;;;;;;;6.73;6.00;;;22.50;99.90;;;;;;5032470;28;20170;-70
2023/08/24 04:23:45;;;;;;;8.27;7.57;;;22.60;99.90;;;;;;5025144;28;20188;-70
2023/08/24 04:26:13;;;;;;;8.73;7.17;;;22.60;99.90;;;;;;5012671;28;20184;-70
2023/08/24 04:28:39;;;;;;;7.90;7.20;;;22.70;99.90;;;;;;5016876;28;20801;-70
2023/08/24 04:31:05;;;;;;;8.27;7.47;;;22.70;99.90;;;;;;5032616;28;20501;-70
2023/08/24 04:33:31;;;;;;;9.13;8.37;;;22.80;99.90;;;;;;5032758;28;20486;-71
2023/08/24 04:35:56;;;;;;;8.13;7.33;;;22.70;99.90;;;;;;5029179;28;20539;-71
2023/08/24 04:38:22;;;;;;;9.10;8.20;;;22.60;99.90;;;;;;5030598;28;20196;-71
2023/08/24 04:40:51;;;;;;;8.40;7.27;;;22.60;99.90;;;;;;5012184;28;20229;-69
2023/08/24 04:43:18;;;;;;;8.43;7.20;;;22.70;99.90;;;;;;5012544;28;20187;-70
2023/08/24 04:45:47;;;;;;;8.07;7.37;;;22.70;99.90;;;;;;5012575;28;20444;-70
2023/08/24 04:48:12;;;;;;;7.90;7.30;;;22.70;99.90;;;;;;5013036;28;20434;-70
2023/08/24 04:50:38;;;;;;;8.30;7.50;;;22.60;99.90;;;;;;5032170;28;20767;-69
2023/08/24 04:53:03;;;;;;;8.17;7.57;;;22.60;99.90;;;;;;5030939;28;20253;-69
2023/08/24 04:55:29;;;;;;;8.83;7.63;;;22.60;99.90;;;;;;5014512;28;20613;-70
2023/08/24 04:57:54;;;;;;;7.50;7.00;;;22.60;99.90;;;;;;5031653;28;20188;-69
2023/08/24 05:00:20;;;;;;;7.37;6.77;;;22.60;99.90;;;;;;5014515;28;20196;-71
2023/08/24 05:02:45;;;;;;;8.87;7.97;;;22.60;99.90;;;;;;5012233;28;20192;-70
2023/08/24 05:05:11;;;;;;;9.87;9.00;;;22.60;99.90;;;;;;5012311;28;20172;-70
2023/08/24 05:07:40;;;;;;;10.13;9.30;;;22.50;99.90;;;;;;5015851;28;20274;-70
2023/08/24 05:10:07;;;;;;;8.03;7.27;;;22.50;99.90;;;;;;5031687;28;20168;-70
2023/08/24 05:12:35;;;;;;;8.50;7.80;;;22.40;99.90;;;;;;5035620;28;20409;-71
2023/08/24 05:15:01;;;;;;;8.43;7.50;;;22.50;99.90;;;;;;5035877;28;20413;-69
2023/08/24 05:17:28;;;;;;;7.10;6.30;;;22.60;99.90;;;;;;5035566;28;20887;-71
2023/08/24 05:19:56;;;;;;;7.37;6.67;;;22.80;99.90;;;;;;5021724;28;20415;-71
2023/08/24 05:22:21;;;;;;;9.53;7.13;;;23.00;99.90;;;;;;5015813;28;20786;-70
2023/08/24 05:24:47;;;;;;;8.20;7.47;;;23.00;99.90;;;;;;5015427;28;20426;-70
2023/08/24 05:27:13;;;;;;;8.20;7.37;;;22.90;99.90;;;;;;5015359;28;20286;-70
2023/08/24 05:29:38;;;;;;;7.77;7.07;;;22.80;99.90;;;;;;5027157;28;20723;-70
2023/08/24 05:32:04;;;;;;;8.17;7.47;;;22.90;99.90;;;;;;5035579;28;20171;-70
2023/08/24 05:34:30;;;;;;;7.80;7.13;;;22.90;99.90;;;;;;5035175;28;20174;-70
2023/08/24 05:36:55;;;;;;;7.97;7.33;;;23.00;99.90;;;;;;5035272;28;20183;-70
2023/08/24 05:39:21;;;;;;;8.93;7.43;;;23.10;99.90;;;;;;5025985;28;20258;-70
2023/08/24 05:41:50;;;;;;;8.63;7.93;;;22.90;99.90;;;;;;5015753;28;20172;-70
2023/08/24 05:44:16;;;;;;;7.87;7.10;;;23.00;99.90;;;;;;5015589;28;20178;-70
2023/08/24 05:46:42;;;;;;;8.97;8.13;;;23.20;99.90;;;;;;5015281;28;20406;-70
2023/08/24 05:49:08;;;;;;;8.87;7.77;;;23.30;99.90;;;;;;5022581;28;20413;-70
2023/08/24 05:51:33;;;;;;;7.97;7.17;;;23.40;99.90;;;;;;5035455;28;20193;-70
2023/08/24 05:54:00;;;;;;;7.77;7.03;;;23.40;99.90;;;;;;5025617;28;20207;-69
2023/08/24 05:56:25;;;;;;;8.47;7.67;;;23.50;99.90;;;;;;5013609;28;20180;-69
2023/08/24 05:58:51;;;;;;;9.13;7.50;;;23.60;99.90;;;;;;5019870;28;20776;-71
2023/08/24 06:01:17;;;;;;;8.50;7.80;;;23.70;99.90;;;;;;5035029;28;20226;-71
2023/08/24 06:03:43;;;;;;;8.13;7.33;;;23.70;99.90;;;;;;5033408;28;20684;-68
2023/08/24 06:06:09;;;;;;;8.00;7.30;;;23.80;99.90;;;;;;5035061;28;20230;-71
2023/08/24 06:08:35;;;;;;;7.50;6.70;;;23.60;99.90;;;;;;5032197;28;20431;-70
2023/08/24 06:11:00;;;;;;;9.70;6.87;;;23.50;99.90;;;;;;5014336;28;20403;-69
2023/08/24 06:13:26;;;;;;;7.83;7.13;;;23.70;99.90;;;;;;5014732;28;20230;-70
2023/08/24 06:15:53;;;;;;;8.03;6.83;;;23.80;99.90;;;;;;5015015;28;20553;-69
2023/08/24 06:18:18;;;;;;;7.77;7.07;;;23.70;99.90;;;;;;5014260;28;20771;-71
2023/08/24 06:20:45;;;;;;;8.67;6.43;;;23.70;99.90;;;;;;5034912;28;20459;-71
2023/08/24 06:23:13;;;;;;;7.40;6.70;;;23.70;99.90;;;;;;5032400;28;20197;-71
2023/08/24 06:25:38;;;;;;;8.00;7.30;;;23.80;99.90;;;;;;5014999;28;20509;-71
2023/08/24 06:28:04;;;;;;;7.20;6.50;;;23.90;99.90;;;;;;5016926;28;20447;-71
2023/08/24 06:30:36;;;;;;;6.77;6.17;;;24.20;99.90;;;;;;5032770;28;20175;-70
2023/08/24 06:33:03;;;;;;;7.60;6.90;;;24.30;99.90;;;;;;5034119;28;20397;-70
2023/08/24 06:35:29;;;;;;;7.70;5.87;;;24.30;99.90;;;;;;5034392;28;20456;-70
2023/08/24 06:37:55;;;;;;;7.00;6.33;;;24.30;99.90;;;;;;5034640;28;20817;-69
2023/08/24 06:40:20;;;;;;;6.93;6.10;;;24.50;99.90;;;;;;5018261;28;20542;-70
2023/08/24 06:42:46;;;;;;;6.73;5.90;;;24.50;99.90;;;;;;5014956;28;20202;-70
2023/08/24 06:45:11;;;;;;;8.70;6.43;;;24.70;99.90;;;;;;5014206;28;20259;-70
2023/08/24 06:47:38;;;;;;;7.67;6.97;;;24.70;99.90;;;;;;5014837;28;20200;-70
2023/08/24 06:50:04;;;;;;;7.57;6.77;;;24.60;99.90;;;;;;5027775;28;20182;-69
2023/08/24 06:52:30;;;;;;;7.00;5.90;;;24.50;99.90;;;;;;5019466;28;20458;-70
2023/08/24 06:54:56;;;;;;;7.27;6.57;;;24.50;99.90;;;;;;5013641;28;20410;-71
2023/08/24 06:57:22;;;;;;;7.20;6.50;;;24.50;99.90;;;;;;5023555;28;20674;-71
2023/08/24 06:59:47;;;;;;;7.50;6.80;;;24.60;99.90;;;;;;5022086;28;20230;-70
2023/08/24 07:02:13;;;;;;;12.93;9.00;;;24.70;99.90;;;;;;5013695;28;20446;-70
2023/08/24 07:04:40;;;;;;;10.13;7.90;;;24.50;99.90;;;;;;5013890;28;20174;-71
2023/08/24 07:07:06;;;;;;;10.00;9.20;;;24.40;99.90;;;;;;5013890;28;20604;-71
2023/08/24 07:09:32;;;;;;;9.50;7.40;;;24.60;99.90;;;;;;5022677;28;20445;-70
2023/08/24 07:11:57;;;;;;;15.53;8.90;;;24.70;99.90;;;;;;5033380;28;20813;-70
2023/08/24 07:14:23;;;;;;;10.60;8.37;;;25.00;99.90;;;;;;5033797;28;20581;-69
2023/08/24 07:16:49;;;;;;;9.70;7.77;;;25.00;99.90;;;;;;5033378;28;20534;-70
2023/08/24 07:19:14;;;;;;;10.33;9.13;;;25.00;99.90;;;;;;5026999;28;20257;-70
2023/08/24 07:21:40;;;;;;;8.93;7.77;;;24.90;99.90;;;;;;5013507;28;20694;-70
2023/08/24 07:24:05;;;;;;;9.40;8.00;;;24.80;99.90;;;;;;5013440;28;20164;-70
2023/08/24 07:26:31;;;;;;;9.77;8.77;;;24.60;99.90;;;;;;5012843;28;20651;-70
2023/08/24 07:28:59;;;;;;;10.53;9.43;;;24.60;99.90;;;;;;5017265;28;20270;-70
2023/08/24 07:31:25;;;;;;;9.43;8.60;;;24.90;99.90;;;;;;5033107;28;20402;-71
2023/08/24 07:33:50;;;;;;;9.63;8.67;;;24.90;99.90;;;;;;5033096;28;20417;-71
2023/08/24 07:36:16;;;;;;;9.63;8.50;;;24.80;99.90;;;;;;5033396;28;20189;-70
2023/08/24 07:38:42;;;;;;;9.73;8.70;;;24.80;99.90;;;;;;5030955;28;20195;-71
2023/08/24 07:41:09;;;;;;;9.83;8.80;;;24.70;99.90;;;;;;5013108;28;20226;-71
2023/08/24 07:43:34;;;;;;;9.30;8.50;;;24.90;99.90;;;;;;5013264;28;20842;-71
2023/08/24 07:46:00;;;;;;;11.20;8.67;;;24.70;99.90;;;;;;5013370;28;20407;-71
2023/08/24 07:48:26;;;;;;;11.50;10.30;;;24.70;99.90;;;;;;5013128;28;20781;-71
2023/08/24 07:50:51;;;;;;;11.80;9.93;;;24.60;99.90;;;;;;5032832;28;20176;-71
2023/08/24 07:53:17;;;;;;;10.83;9.37;;;24.70;99.90;;;;;;5029466;28;20180;-71
2023/08/24 07:55:43;;;;;;;12.27;10.80;;;24.80;99.90;;;;;;5012947;28;20623;-71
2023/08/24 07:58:09;;;;;;;10.53;9.53;;;25.00;99.90;;;;;;5012751;28;20246;-71
2023/08/24 08:00:34;;;;;;;12.70;9.30;;;25.00;99.90;;;;;;5030391;28;20454;-71
2023/08/24 08:03:00;;;;;;;8.87;8.07;;;24.80;99.90;;;;;;5032745;28;20578;-71
2023/08/24 08:05:26;;;;;;;10.70;9.50;;;24.90;99.90;;;;;;5033070;28;20182;-71
2023/08/24 08:07:52;;;;;;;10.50;9.40;;;25.20;99.90;;;;;;5032996;28;20192;-71
2023/08/24 08:10:20;;;;;;;10.47;8.50;;;25.00;99.90;;;;;;5018348;28;20406;-71
2023/08/24 08:12:45;;;;;;;9.97;8.17;;;25.00;99.90;;;;;;5013137;28;20536;-71
2023/08/24 08:15:11;;;;;;;8.47;7.63;;;25.00;99.90;;;;;;5013180;28;20438;-70
2023/08/24 08:17:37;;;;;;;8.47;7.70;;;24.80;99.90;;;;;;5013247;28;20200;-71
2023/08/24 08:20:03;;;;;;;8.17;7.47;;;24.60;99.90;;;;;;5025349;28;20613;-71
2023/08/24 08:22:28;;;;;;;8.60;7.87;;;24.50;99.90;;;;;;5032898;28;20290;-71
2023/08/24 08:24:55;;;;;;;11.10;7.60;;;24.80;99.90;;;;;;5015290;28;20513;-71
2023/08/24 08:27:22;;;;;;;7.43;6.70;;;25.20;99.90;;;;;;5013405;28;20219;-71
2023/08/24 08:29:47;;;;;;;7.13;6.53;;;25.50;99.90;;;;;;5023285;28;20418;-71
2023/08/24 08:32:13;;;;;;;8.40;6.40;;;25.70;99.90;;;;;;5032867;28;20782;-71
2023/08/24 08:34:39;;;;;;;7.73;6.50;;;26.00;99.90;;;;;;5033059;28;20175;-71
2023/08/24 08:37:04;;;;;;;9.63;7.20;;;26.10;99.90;;;;;;5029828;28;20224;-71
2023/08/24 08:39:32;;;;;;;6.90;6.20;;;26.10;99.90;;;;;;5024802;28;20234;-71
2023/08/24 08:41:57;;;;;;;6.37;5.77;;;26.10;99.90;;;;;;5015298;28;20220;-71
2023/08/24 08:44:29;;;;;;;6.87;6.23;;;26.00;99.90;;;;;;5016899;28;20910;-70
2023/08/24 08:46:57;;;;;;;6.97;6.37;;;26.30;99.90;;;;;;5016942;28;20191;-71
2023/08/24 08:49:22;;;;;;;6.67;6.10;;;26.20;99.90;;;;;;5022972;28;20905;-70
2023/08/24 08:51:48;;;;;;;6.60;6.00;;;26.20;99.90;;;;;;5024573;28;20421;-70
2023/08/24 08:54:14;;;;;;;8.17;6.90;;;26.30;99.90;;;;;;5016441;28;20230;-71
2023/08/24 08:56:40;;;;;;;6.30;5.80;;;26.60;99.90;;;;;;5016202;28;20453;-71
2023/08/24 08:59:08;;;;;;;7.63;6.33;;;26.70;99.90;;;;;;5020644;28;20172;-71
2023/08/24 09:01:34;;;;;;;8.33;6.37;;;26.80;99.90;;;;;;5026153;28;20414;-71
2023/08/24 09:04:00;;;;;;;7.53;6.40;;;26.90;99.90;;;;;;5016259;28;20478;-71
2023/08/24 09:06:26;;;;;;;6.73;5.50;;;26.90;99.90;;;;;;5016739;28;20946;-70
2023/08/24 09:08:52;;;;;;;7.50;6.50;;;27.00;99.90;;;;;;5018068;28;20418;-71
2023/08/24 09:11:18;;;;;;;6.87;6.13;;;27.00;99.90;;;;;;5036025;28;20175;-71
2023/08/24 09:13:45;;;;;;;5.77;5.27;;;27.30;99.90;;;;;;5035700;28;20414;-71
2023/08/24 09:16:15;;;;;;;7.27;6.57;;;26.90;99.90;;;;;;5036271;28;20179;-71
2023/08/24 09:18:44;;;;;;;7.77;6.30;;;26.60;99.90;;;;;;5035676;28;20473;-70
2023/08/24 09:21:16;;;;;;;10.27;6.90;;;26.80;99.90;;;;;;5016154;28;20777;-70
2023/08/24 09:23:55;;;;;;;6.83;6.13;;;27.10;99.90;;;;;;5015800;28;20458;-71
2023/08/24 09:26:30;;;;;;;9.07;6.50;;;27.40;99.90;;;;;;5016360;28;20395;-71
2023/08/24 09:28:57;;;;;;;6.13;5.53;;;27.60;99.90;;;;;;5018427;28;20398;-71
2023/08/24 09:31:24;;;;;;;8.53;6.07;;;27.70;99.90;;;;;;5036220;28;20398;-71
2023/08/24 09:33:49;;;;;;;7.23;6.50;;;27.80;99.90;;;;;;5040268;28;20822;-71
2023/08/24 09:36:15;;;;;;;7.30;6.50;;;28.00;99.90;;;;;;5045521;28;20402;-71
2023/08/24 09:38:51;;;;;;;8.77;6.60;;;27.90;99.90;;;;;;5036328;28;20249;-71
2023/08/24 09:41:17;;;;;;;6.97;6.30;;;27.90;99.90;;;;;;5016299;28;20382;-71
2023/08/24 09:43:42;;;;;;;7.87;6.90;;;27.90;99.90;;;;;;5017645;28;20545;-71
2023/08/24 09:46:08;;;;;;;6.67;6.07;;;28.10;99.90;;;;;;5026002;28;20168;-71
2023/08/24 09:48:34;;;;;;;7.00;6.30;;;28.40;99.90;;;;;;5025214;28;20544;-71
2023/08/24 09:51:04;;;;;;;6.93;6.30;;;28.70;99.90;;;;;;5044558;28;20651;-71
2023/08/24 09:53:33;;;;;;;8.27;6.33;;;28.60;99.90;;;;;;5045225;28;20179;-71
2023/08/24 09:56:02;;;;;;;7.53;6.70;;;28.90;99.90;;;;;;5028102;28;20407;-71
2023/08/24 09:58:28;;;;;;;7.83;7.00;;;28.70;99.90;;;;;;5027511;28;20431;-71
2023/08/24 10:00:55;;;;;;;7.70;6.50;;;28.60;99.90;;;;;;5045526;28;20410;-71
2023/08/24 10:03:25;;;;;;;7.67;6.97;;;28.70;99.90;;;;;;5048080;28;20453;-71
2023/08/24 10:06:02;;;;;;;8.83;6.23;;;28.80;99.90;;;;;;5047006;28;20386;-70
2023/08/24 10:08:34;;;;;;;6.20;5.60;;;28.90;99.90;;;;;;5039944;28;20790;-71
2023/08/24 10:11:00;;;;;;;7.17;6.33;;;29.40;99.90;;;;;;5016247;28;20394;-70
2023/08/24 10:13:53;;;;;;;8.60;6.30;;;29.60;99.90;;;;;;5014746;28;20510;-70
2023/08/24 10:16:21;;;;;;;7.00;6.30;;;29.80;99.90;;;;;;5015426;28;20542;-70
2023/08/24 10:18:47;;;;;;;9.07;5.90;;;29.60;99.90;;;;;;5014899;28;20517;-70
2023/08/24 10:21:13;;;;;;;7.63;6.47;;;29.70;99.90;;;;;;5034402;28;20445;-70
2023/08/24 10:23:39;;;;;;;7.83;6.23;;;29.60;99.90;;;;;;5030941;28;20199;-71
2023/08/24 10:26:07;;;;;;;13.00;6.70;;;29.90;99.90;;;;;;5014997;28;20470;-70
2023/08/24 10:28:34;;;;;;;6.77;6.00;;;30.10;99.90;;;;;;5014192;28;20447;-70
2023/08/24 10:31:00;;;;;;;12.53;6.60;;;30.20;99.90;;;;;;5029356;28;20460;-70
2023/08/24 10:33:34;;;;;;;7.40;6.70;;;30.30;99.90;;;;;;5034959;28;20460;-70
2023/08/24 10:36:00;;;;;;;10.77;6.57;;;30.40;99.50;;;;;;5041123;28;20425;-70
2023/08/24 10:38:29;;;;;;;7.73;6.23;;;30.60;99.90;;;;;;5034240;28;20453;-70
2023/08/24 10:41:05;;;;;;;7.03;6.23;;;30.90;99.80;;;;;;5016867;28;20199;-71
2023/08/24 10:43:35;;;;;;;8.70;6.50;;;31.10;99.10;;;;;;5014600;28;20452;-70
2023/08/24 10:46:01;;;;;;;8.53;6.13;;;31.00;99.80;;;;;;5014543;28;20494;-70
2023/08/24 10:48:28;;;;;;;7.50;6.33;;;31.00;99.30;;;;;;5014301;28;20430;-71
2023/08/24 10:51:22;;;;;;;7.73;6.33;;;31.20;98.70;;;;;;5031315;28;20418;-70
2023/08/24 10:54:15;;;;;;;8.17;6.50;;;31.00;99.50;;;;;;5029508;28;20411;-71
2023/08/24 10:56:53;;;;;;;7.63;6.53;;;31.00;99.50;;;;;;5014762;28;20498;-70
2023/08/24 10:59:20;;;;;;;6.80;6.17;;;32.20;98.40;;;;;;5026737;28;20436;-70
2023/08/24 11:01:51;;;;;;;7.23;6.63;;;33.70;96.70;;;;;;5033751;28;20402;-70
2023/08/24 11:04:17;;;;;;;7.27;6.67;;;35.70;93.60;;;;;;5032586;28;20464;-71
2023/08/24 11:06:58;;;;;;;8.40;6.20;;;36.10;92.90;;;;;;5015190;28;20415;-71
2023/08/24 11:09:24;;;;;;;7.00;6.40;;;36.50;92.50;;;;;;5027705;28;20939;-71
2023/08/24 11:12:16;;;;;;;6.73;6.13;;;36.60;90.10;;;;;;5033678;28;20460;-70
2023/08/24 11:14:54;;;;;;;8.30;6.83;;;36.20;90.40;;;;;;5030921;28;20183;-72
2023/08/24 11:17:21;;;;;;;8.07;6.80;;;36.40;89.70;;;;;;5033865;28;20436;-71
2023/08/24 11:19:49;;;;;;;7.30;6.63;;;37.10;88.90;;;;;;5016829;28;20403;-72
2023/08/24 11:22:16;;;;;;;7.37;6.43;;;37.80;86.30;;;;;;5013896;28;20443;-72
2023/08/24 11:24:42;;;;;;;8.53;6.70;;;37.80;83.70;;;;;;5013295;28;20430;-72
2023/08/24 11:27:09;;;;;;;7.50;6.80;;;37.30;83.60;;;;;;5013732;28;20458;-71
2023/08/24 11:29:34;;;;;;;8.63;6.40;;;37.80;83.60;;;;;;5028687;28;20175;-71
2023/08/24 11:32:00;;;;;;;9.53;6.80;;;39.40;80.50;;;;;;5033950;28;20893;-71
2023/08/24 11:34:26;;;;;;;6.47;5.87;;;40.40;75.00;;;;;;5032385;28;20167;-70
2023/08/24 11:36:53;;;;;;;7.60;6.93;;;40.20;74.40;;;;;;5033128;28;20183;-70
2023/08/24 11:39:20;;;;;;;7.13;6.50;;;39.40;74.50;;;;;;5019444;28;20587;-70
2023/08/24 11:42:09;;;;;;;8.13;6.77;;;39.20;74.80;;;;;;5014106;28;20395;-71
2023/08/24 11:45:01;;;;;;;7.43;5.73;;;39.00;74.30;;;;;;5014084;28;20806;-71
2023/08/24 11:47:28;;;;;;;9.57;6.33;;;39.60;73.40;;;;;;5011414;28;20833;-71
2023/08/24 11:49:53;;;;;;;6.60;6.00;;;40.20;72.20;;;;;;5030654;28;20410;-70
2023/08/24 11:52:19;;;;;;;6.70;6.00;;;40.40;70.50;;;;;;5032995;28;20756;-70
2023/08/24 11:54:45;;;;;;;6.80;5.80;;;39.80;72.00;;;;;;5020641;28;20222;-70
2023/08/24 11:57:11;;;;;;;11.87;6.47;;;39.60;71.00;;;;;;5013184;28;20187;-70
2023/08/24 11:59:38;;;;;;;6.67;5.17;;;39.70;70.70;;;;;;5028076;28;20475;-70
2023/08/24 12:02:04;;;;;;;10.60;5.97;;;39.90;69.70;;;;;;5033162;28;20546;-71
2023/08/24 12:04:42;;;;;;;8.63;6.60;;;40.10;69.80;;;;;;5033578;28;20463;-70
2023/08/24 12:07:14;;;;;;;6.63;5.73;;;38.90;71.60;;;;;;5033074;28;20414;-71
2023/08/24 12:09:40;;;;;;;7.80;6.33;;;39.60;71.00;;;;;;5017635;28;20830;-71
2023/08/24 12:12:12;;;;;;;7.63;6.10;;;39.90;69.10;;;;;;5013046;28;20445;-70
2023/08/24 12:14:42;;;;;;;6.47;5.60;;;41.10;66.50;;;;;;5014113;28;20448;-71
2023/08/24 12:17:08;;;;;;;11.13;6.47;;;40.40;66.50;;;;;;5017455;28;20426;-71
2023/08/24 12:19:34;;;;;;;12.10;6.37;;;39.30;69.30;;;;;;5031529;28;20543;-70
2023/08/24 12:21:59;;;;;;;6.57;5.73;;;38.90;69.60;;;;;;5037086;28;20501;-70
2023/08/24 12:24:25;;;;;;;7.73;6.40;;;37.90;71.50;;;;;;5027259;28;20180;-71
2023/08/24 12:27:03;;;;;;;10.73;6.90;;;37.40;74.30;;;;;;5017089;28;20302;-70
2023/08/24 12:29:28;;;;;;;8.03;6.30;;;37.50;73.20;;;;;;5030522;28;20193;-70
2023/08/24 12:31:58;;;;;;;9.50;7.00;;;37.60;73.30;;;;;;5036751;28;20398;-70
2023/08/24 12:34:23;;;;;;;9.93;5.77;;;39.30;70.10;;;;;;5036704;28;20179;-71
2023/08/24 12:36:49;;;;;;;8.00;6.10;;;41.30;65.30;;;;;;5036341;28;20443;-69
2023/08/24 12:39:17;;;;;;;7.37;5.53;;;40.30;65.50;;;;;;5020488;28;20167;-71
2023/08/24 12:41:43;;;;;;;6.20;5.60;;;40.70;66.40;;;;;;5017050;28;20172;-70
2023/08/24 12:44:08;;;;;;;7.73;6.67;;;40.00;64.80;;;;;;5016377;28;20457;-70
2023/08/24 12:46:37;;;;;;;11.00;6.10;;;38.90;68.00;;;;;;5016439;28;20175;-70